createdAt,value
2023-05-24T06:50:58.210Z,22.76
2023-05-24T06:51:58.536Z,22.77
2023-05-24T06:52:58.817Z,22.79
2023-05-24T06:53:59.057Z,22.80
2023-05-24T06:54:59.335Z,22.82
2023-05-24T06:55:59.624Z,22.83
2023-05-24T06:56:59.898Z,22.85
2023-05-24T06:58:00.169Z,22.85
2023-05-24T06:59:00.426Z,22.88
2023-05-24T07:00:00.691Z,22.88
2023-05-24T07:01:01.015Z,22.91
2023-05-24T07:02:03.416Z,22.92
2023-05-24T07:03:01.428Z,22.94
2023-05-24T07:04:01.692Z,22.95
2023-05-24T07:05:02.115Z,22.97
2023-05-24T07:06:02.212Z,22.97
2023-05-24T07:07:02.431Z,23.00
2023-05-24T07:08:02.681Z,23.02
2023-05-24T07:09:02.902Z,23.02
2023-05-24T07:10:03.135Z,23.05
2023-05-24T07:11:03.431Z,23.07
2023-05-24T07:12:03.645Z,23.10
2023-05-24T07:13:03.867Z,23.10
2023-05-24T07:14:04.088Z,23.13
2023-05-24T07:15:04.296Z,23.15
2023-05-24T07:16:04.556Z,23.19
2023-05-24T07:17:04.801Z,23.19
2023-05-24T07:18:05.093Z,23.22
2023-05-24T07:19:05.278Z,23.25
2023-05-24T07:20:05.502Z,23.28
2023-05-24T07:21:05.628Z,23.31
2023-05-24T07:22:05.874Z,23.33
2023-05-24T07:23:06.094Z,23.35
2023-05-24T07:24:06.337Z,23.36
2023-05-24T07:25:06.554Z,23.39
2023-05-24T07:26:06.777Z,23.40
2023-05-24T07:27:06.977Z,23.42
2023-05-24T07:28:07.194Z,23.43
2023-05-24T07:29:07.413Z,23.47
2023-05-24T07:30:16.399Z,23.47
2023-05-24T07:31:08.847Z,23.48
2023-05-24T07:32:08.143Z,23.48
2023-05-24T07:33:08.364Z,23.51
2023-05-24T07:34:08.558Z,23.54
2023-05-24T07:35:08.770Z,23.54
2023-05-24T07:36:08.980Z,23.55
2023-05-24T07:37:09.200Z,23.55
2023-05-24T07:38:09.424Z,23.58
2023-05-24T07:39:09.646Z,23.58
2023-05-24T07:40:09.916Z,23.60
2023-05-24T07:41:10.124Z,23.61
2023-05-24T07:42:10.351Z,23.63
2023-05-24T07:43:10.560Z,23.65
2023-05-24T07:44:10.799Z,23.65
2023-05-24T07:45:11.034Z,23.66
2023-05-24T07:46:11.300Z,23.66
2023-05-24T07:47:11.473Z,23.66
2023-05-24T07:48:11.781Z,23.68
2023-05-24T07:49:11.866Z,23.68
2023-05-24T07:50:12.145Z,23.69
2023-05-24T07:51:12.266Z,23.68
2023-05-24T07:52:12.449Z,23.70
2023-05-24T07:53:12.657Z,23.69
2023-05-24T07:54:12.889Z,23.70
2023-05-24T07:55:13.108Z,23.69
2023-05-24T07:56:13.337Z,23.69
2023-05-24T07:57:13.571Z,23.63
2023-05-24T07:58:13.804Z,23.60
2023-05-24T07:59:14.000Z,23.54
2023-05-24T08:00:14.223Z,23.50
2023-05-24T08:01:14.435Z,23.48
2023-05-24T08:02:14.660Z,23.46
2023-05-24T08:03:14.995Z,23.46
2023-05-24T08:04:15.097Z,23.43
2023-05-24T08:05:15.303Z,23.42
2023-05-24T08:06:15.538Z,23.42
2023-05-24T08:07:15.807Z,23.39
2023-05-24T08:08:15.995Z,23.39
2023-05-24T08:09:16.210Z,23.38
2023-05-24T08:10:16.440Z,23.39
2023-05-24T08:11:16.658Z,23.39
2023-05-24T08:12:17.297Z,23.42
2023-05-24T08:13:17.034Z,23.42
2023-05-24T08:14:17.274Z,23.40
2023-05-24T08:15:17.510Z,23.35
2023-05-24T08:16:17.764Z,23.28
2023-05-24T08:17:17.963Z,23.19
2023-05-24T08:18:18.194Z,23.12
2023-05-24T08:19:18.434Z,23.02
2023-05-24T08:20:18.702Z,22.97
2023-05-24T08:21:18.918Z,22.88
2023-05-24T08:22:19.161Z,22.79
2023-05-24T08:23:19.392Z,22.75
2023-05-24T08:24:19.587Z,22.72
2023-05-24T08:25:19.699Z,22.73
2023-05-24T08:26:19.922Z,22.75
2023-05-24T08:27:20.149Z,22.79
2023-05-24T08:28:20.430Z,22.82
2023-05-24T08:29:20.625Z,22.88
2023-05-24T08:30:20.896Z,22.94
2023-05-24T08:31:21.124Z,22.98
2023-05-24T08:32:21.323Z,23.04
2023-05-24T08:33:21.549Z,23.09
2023-05-24T08:34:21.782Z,23.12
2023-05-24T08:35:22.343Z,23.16
2023-05-24T08:36:22.293Z,23.20
2023-05-24T08:37:22.517Z,23.23
2023-05-24T08:38:22.734Z,23.28
2023-05-24T08:39:22.969Z,23.31
2023-05-24T08:40:23.176Z,23.35
2023-05-24T08:41:23.418Z,23.36
2023-05-24T08:42:23.635Z,23.38
2023-05-24T08:43:23.855Z,23.42
2023-05-24T08:44:24.075Z,23.43
2023-05-24T08:45:24.294Z,23.46
2023-05-24T08:46:24.594Z,23.50
2023-05-24T08:47:24.718Z,23.50
2023-05-24T08:48:25.095Z,23.53
2023-05-24T08:49:25.131Z,23.54
2023-05-24T08:50:25.366Z,23.57
2023-05-24T08:51:25.592Z,23.58
2023-05-24T08:52:25.840Z,23.60
2023-05-24T08:53:26.054Z,23.61
2023-05-24T08:54:26.298Z,23.63
2023-05-24T08:55:26.512Z,23.65
2023-05-24T08:56:26.762Z,23.66
2023-05-24T08:57:26.969Z,23.68
2023-05-24T08:58:27.220Z,23.68
2023-05-24T08:59:27.425Z,23.70
2023-05-24T09:00:27.642Z,23.70
2023-05-24T09:01:30.479Z,23.73
2023-05-24T09:02:28.097Z,23.75
2023-05-24T09:03:28.454Z,23.75
2023-05-24T09:04:28.580Z,23.76
2023-05-24T09:05:28.629Z,23.76
2023-05-24T09:06:28.869Z,23.78
2023-05-24T09:08:29.273Z,23.79
2023-05-24T09:09:29.492Z,23.80
2023-05-24T09:10:35.325Z,23.84
2023-05-24T09:11:30.937Z,23.88
2023-05-24T09:12:37.448Z,23.87
2023-05-24T09:13:31.371Z,23.88
2023-05-24T09:14:30.641Z,23.90
2023-05-24T09:15:30.863Z,23.88
2023-05-24T09:16:31.175Z,23.84
2023-05-24T09:17:33.391Z,23.78
2023-05-24T09:18:31.472Z,23.70
2023-05-24T09:19:31.726Z,23.61
2023-05-24T09:20:32.000Z,23.53
2023-05-24T09:21:32.090Z,23.50
2023-05-24T09:22:32.331Z,23.46
2023-05-24T09:23:32.540Z,23.43
2023-05-24T09:24:32.761Z,23.42
2023-05-24T09:25:32.987Z,23.42
2023-05-24T09:26:33.222Z,23.40
2023-05-24T09:27:33.452Z,23.38
2023-05-24T09:28:33.671Z,23.35
2023-05-24T09:29:33.906Z,23.35
2023-05-24T09:30:34.133Z,23.35
2023-05-24T09:31:34.427Z,23.35
2023-05-24T09:32:34.622Z,23.35
2023-05-24T09:33:34.667Z,23.36
2023-05-24T09:34:34.945Z,23.39
2023-05-24T09:35:35.055Z,23.40
2023-05-24T09:36:35.292Z,23.43
2023-05-24T09:37:35.423Z,23.50
2023-05-24T09:38:35.697Z,23.53
2023-05-24T09:39:35.959Z,23.57
2023-05-24T09:40:36.202Z,23.60
2023-05-24T09:41:36.329Z,23.65
2023-05-24T09:42:36.578Z,23.70
2023-05-24T09:43:36.809Z,23.70
2023-05-24T09:44:37.050Z,23.73
2023-05-24T09:45:37.236Z,23.73
2023-05-24T09:46:37.521Z,23.75
2023-05-24T09:47:37.716Z,23.73
2023-05-24T09:48:37.850Z,23.73
2023-05-24T09:49:38.065Z,23.73
2023-05-24T09:50:38.316Z,23.76
2023-05-24T09:51:38.509Z,23.75
2023-05-24T09:52:38.650Z,23.76
2023-05-24T09:53:38.757Z,23.72
2023-05-24T09:54:39.018Z,23.72
2023-05-24T09:55:39.145Z,23.70
2023-05-24T09:56:39.417Z,23.69
2023-05-24T09:57:39.534Z,23.65
2023-05-24T09:58:39.790Z,23.61
2023-05-24T09:59:40.032Z,23.60
2023-05-24T10:00:40.435Z,23.58
2023-05-24T10:01:40.459Z,23.57
2023-05-24T10:02:51.891Z,23.55
2023-05-24T10:03:41.983Z,23.55
2023-05-24T10:04:41.225Z,23.54
2023-05-24T10:05:41.325Z,23.53
2023-05-24T10:06:41.568Z,23.54
2023-05-24T10:07:42.350Z,23.53
2023-05-24T10:08:42.020Z,23.53
2023-05-24T10:09:42.274Z,23.54
2023-05-24T10:10:42.956Z,23.57
2023-05-24T10:11:42.765Z,23.58
2023-05-24T10:12:42.999Z,23.58
2023-05-24T10:13:43.216Z,23.58
2023-05-24T10:14:43.452Z,23.58
2023-05-24T10:15:43.673Z,23.61
2023-05-24T10:16:43.937Z,23.63
2023-05-24T10:17:44.092Z,23.63
2023-05-24T10:18:44.280Z,23.65
2023-05-24T10:19:44.506Z,23.65
2023-05-24T10:20:45.143Z,23.65
2023-05-24T10:21:45.003Z,23.65
2023-05-24T10:22:45.194Z,23.66
2023-05-24T10:23:45.454Z,23.66
2023-05-24T10:24:45.592Z,23.66
2023-05-24T10:25:45.817Z,23.65
2023-05-24T10:26:46.033Z,23.65
2023-05-24T10:27:46.240Z,23.66
2023-05-24T10:28:46.486Z,23.65
2023-05-24T10:29:46.747Z,23.65
2023-05-24T10:30:47.203Z,23.63
2023-05-24T10:31:47.273Z,23.61
2023-05-24T10:32:47.247Z,23.60
2023-05-24T10:33:47.320Z,23.60
2023-05-24T10:34:47.547Z,23.60
2023-05-24T10:35:47.782Z,23.60
2023-05-24T10:36:48.005Z,23.60
2023-05-24T10:37:48.226Z,23.60
2023-05-24T10:38:48.349Z,23.60
2023-05-24T10:39:48.570Z,23.61
2023-05-24T10:40:48.989Z,23.61
2023-05-24T10:41:49.085Z,23.60
2023-05-24T10:42:49.298Z,23.60
2023-05-24T10:44:07.277Z,23.61
2023-05-24T10:44:50.725Z,23.61
2023-05-24T10:45:50.070Z,23.58
2023-05-24T10:46:50.276Z,23.58
2023-05-24T10:47:50.364Z,23.60
2023-05-24T10:48:50.554Z,23.58
2023-05-24T10:49:50.798Z,23.57
2023-05-24T10:50:51.046Z,23.58
2023-05-24T10:51:51.263Z,23.58
2023-05-24T10:52:51.474Z,23.57
2023-05-24T10:53:51.703Z,23.55
2023-05-24T10:55:52.181Z,23.55
2023-05-24T10:56:52.394Z,23.58
2023-05-24T10:57:52.649Z,23.58
2023-05-24T10:58:52.875Z,23.57
2023-05-24T10:59:53.143Z,23.58
2023-05-24T11:00:53.340Z,23.60
2023-05-24T11:01:53.487Z,23.60
2023-05-24T11:02:53.656Z,23.65
2023-05-24T11:03:53.843Z,23.66
2023-05-24T11:04:54.149Z,23.70
2023-05-24T11:05:54.358Z,23.73
2023-05-24T11:06:54.456Z,23.76
2023-05-24T11:07:54.700Z,23.78
2023-05-24T11:08:54.920Z,23.80
2023-05-24T11:09:55.143Z,23.84
2023-05-24T11:10:55.381Z,23.84
2023-05-24T11:11:55.625Z,23.87
2023-05-24T11:12:55.838Z,23.90
